createdAt,value
2022-12-19T00:01:57.785Z,100942.25
2022-12-19T00:06:59.959Z,100941.59
2022-12-19T00:12:01.691Z,100958.78
2022-12-19T00:17:03.346Z,100954.81
2022-12-19T00:22:10.894Z,100952.19
2022-12-19T00:27:12.902Z,100946.84
2022-12-19T00:32:14.586Z,100951.00
2022-12-19T00:37:18.250Z,100929.16
2022-12-19T00:42:19.965Z,100923.31
2022-12-19T00:47:23.652Z,100928.53
2022-12-19T00:52:25.353Z,100907.44
2022-12-19T00:57:27.338Z,100906.41
2022-12-19T01:02:29.135Z,100927.50
2022-12-19T01:07:30.849Z,100913.16
2022-12-19T01:12:47.730Z,100918.22
2022-12-19T01:17:49.841Z,100914.53
2022-12-19T01:22:53.294Z,100892.66
2022-12-19T01:27:55.797Z,100883.38
2022-12-19T01:32:58.686Z,100872.09
2022-12-19T01:38:08.478Z,100880.66
2022-12-19T01:43:14.843Z,100876.22
2022-12-19T01:48:22.482Z,100873.94
2022-12-19T01:53:28.943Z,100875.94
2022-12-19T01:58:31.017Z,100859.72
2022-12-19T02:03:35.550Z,100850.06
2022-12-19T02:08:37.635Z,100845.94
2022-12-19T02:13:40.585Z,100840.34
2022-12-19T02:19:30.405Z,100839.03
2022-12-19T02:24:50.829Z,100826.63
2022-12-19T02:30:10.513Z,100819.13
2022-12-19T02:35:40.416Z,100813.84
2022-12-19T02:40:51.882Z,100810.25
2022-12-19T02:46:00.933Z,100827.53
2022-12-19T02:51:04.693Z,100835.47
2022-12-19T02:56:22.827Z,100831.78
2022-12-19T03:01:31.038Z,100840.16
2022-12-19T03:06:48.456Z,100840.69
2022-12-19T03:12:00.528Z,100841.53
2022-12-19T03:17:06.107Z,100840.44
2022-12-19T03:22:08.522Z,100845.25
2022-12-19T03:27:22.788Z,100851.44
2022-12-19T03:32:25.240Z,100862.72
2022-12-19T03:37:31.991Z,100850.88
2022-12-19T03:42:54.243Z,100851.06
2022-12-19T03:48:00.915Z,100853.31
2022-12-19T03:53:23.979Z,100852.72
2022-12-19T03:58:33.976Z,100850.63
2022-12-19T04:03:36.183Z,100859.81
2022-12-19T04:08:38.532Z,100854.50
2022-12-19T04:13:47.575Z,100850.16
2022-12-19T04:18:56.450Z,100851.31
2022-12-19T04:24:04.610Z,100855.53
2022-12-19T04:29:08.073Z,100863.28
2022-12-19T04:34:09.844Z,100842.47
2022-12-19T04:39:11.639Z,100841.72
2022-12-19T04:44:13.312Z,100828.41
2022-12-19T04:49:14.957Z,100829.94
2022-12-19T04:54:16.842Z,100829.38
2022-12-19T04:59:18.609Z,100847.81
2022-12-19T05:04:20.419Z,100846.22
2022-12-19T05:09:22.177Z,100828.50
2022-12-19T05:14:24.282Z,100840.41
2022-12-19T05:19:25.993Z,100842.09
2022-12-19T05:24:27.662Z,100848.69
2022-12-19T05:29:29.367Z,100851.72
2022-12-19T05:34:31.753Z,100842.09
2022-12-19T05:39:33.492Z,100850.72
2022-12-19T05:44:35.292Z,100838.50
2022-12-19T05:49:37.003Z,100851.66
2022-12-19T05:54:38.657Z,100854.03
2022-12-19T05:59:40.309Z,100852.34
2022-12-19T06:04:42.009Z,100850.50
2022-12-19T06:09:43.697Z,100845.38
2022-12-19T06:14:45.345Z,100839.66
2022-12-19T06:19:47.003Z,100845.38
2022-12-19T06:24:48.685Z,100862.91
2022-12-19T06:29:50.416Z,100862.78
2022-12-19T06:35:07.422Z,100865.47
2022-12-19T06:40:29.749Z,100858.81
2022-12-19T06:45:31.673Z,100852.28
2022-12-19T06:50:36.381Z,100852.41
2022-12-19T06:55:40.071Z,100843.03
2022-12-19T07:00:41.863Z,100840.22
2022-12-19T07:05:44.098Z,100841.66
2022-12-19T07:10:45.877Z,100841.94
2022-12-19T07:15:48.252Z,100860.91
2022-12-19T07:20:49.984Z,100853.97
2022-12-19T07:25:51.764Z,100846.22
2022-12-19T07:30:53.528Z,100846.50
2022-12-19T07:35:55.425Z,100843.81
2022-12-19T07:41:01.237Z,100836.25
2022-12-19T07:46:02.962Z,100843.44
2022-12-19T07:51:05.450Z,100862.19
2022-12-19T07:56:07.685Z,100844.41
2022-12-19T08:01:10.126Z,100842.00
2022-12-19T08:06:11.995Z,100845.41
2022-12-19T08:11:19.136Z,100842.59
2022-12-19T08:16:21.666Z,100844.72
2022-12-19T08:21:25.011Z,100852.03
2022-12-19T08:26:27.759Z,100842.34
2022-12-19T08:31:31.800Z,100824.47
2022-12-19T08:36:33.944Z,100823.06
2022-12-19T08:41:35.745Z,100799.03
2022-12-19T08:46:37.563Z,100786.44
2022-12-19T08:51:39.326Z,100767.50
2022-12-19T08:56:46.837Z,100765.28
2022-12-19T09:01:49.041Z,100756.84
2022-12-19T09:06:50.950Z,100766.28
2022-12-19T09:11:52.695Z,100758.22
2022-12-19T09:16:54.440Z,100746.00
2022-12-19T09:21:59.547Z,100746.25
2022-12-19T09:27:01.229Z,100739.97
2022-12-19T09:32:03.103Z,100730.69
2022-12-19T09:37:10.438Z,100713.34
2022-12-19T09:42:35.121Z,100714.13
2022-12-19T09:47:47.080Z,100726.91
2022-12-19T09:52:58.304Z,100723.38
2022-12-19T09:58:06.178Z,100711.28
2022-12-19T10:03:38.803Z,100710.22
2022-12-19T10:09:16.650Z,100708.00
2022-12-19T10:14:22.694Z,100710.91
2022-12-19T10:19:35.058Z,100711.47
2022-12-19T10:25:10.459Z,100699.56
2022-12-19T10:30:18.983Z,100698.53
2022-12-19T10:35:21.167Z,100676.03
2022-12-19T10:40:32.117Z,100703.38
2022-12-19T10:45:41.018Z,100691.03
2022-12-19T10:50:43.754Z,100689.25
2022-12-19T10:55:51.802Z,100678.28
2022-12-19T11:01:11.901Z,100680.78
2022-12-19T11:06:35.385Z,100674.41
2022-12-19T11:13:30.998Z,100664.78
2022-12-19T11:23:49.428Z,100660.72
2022-12-19T11:29:34.562Z,100643.06
2022-12-19T11:29:37.373Z,100650.19
2022-12-19T11:33:18.408Z,100623.72
2022-12-19T11:38:27.877Z,100625.56
2022-12-19T11:43:44.584Z,100618.56
2022-12-19T11:48:54.025Z,100615.44
2022-12-19T11:54:12.303Z,100605.13
2022-12-19T11:59:37.846Z,100603.03
2022-12-19T12:04:54.618Z,100608.16
2022-12-19T12:13:45.659Z,100586.34
2022-12-19T12:26:23.051Z,100581.47
2022-12-19T12:31:05.106Z,100581.75
2022-12-19T12:31:58.266Z,100565.25
2022-12-19T12:35:46.912Z,100570.13
2022-12-19T12:39:20.742Z,100579.97
2022-12-19T12:44:33.175Z,100551.38
2022-12-19T12:49:54.432Z,100553.03
2022-12-19T12:54:57.835Z,100535.66
2022-12-19T13:00:35.961Z,100539.81
2022-12-19T13:05:45.836Z,100531.41
2022-12-19T13:10:59.285Z,100534.84
2022-12-19T13:16:39.429Z,100518.50
2022-12-19T13:22:04.114Z,100525.47
2022-12-19T13:27:32.359Z,100520.53
2022-12-19T13:32:53.964Z,100518.94
2022-12-19T13:39:56.400Z,100524.25
2022-12-19T13:43:46.424Z,100516.50
2022-12-19T13:48:52.537Z,100519.91
2022-12-19T13:53:59.557Z,100507.75
2022-12-19T13:59:04.341Z,100500.66
2022-12-19T14:04:08.019Z,100502.44
2022-12-19T14:11:27.765Z,100500.47
2022-12-19T14:15:13.152Z,100495.22
2022-12-19T14:22:07.202Z,100492.69
2022-12-19T14:28:19.379Z,100490.28
2022-12-19T14:31:15.257Z,100494.72
2022-12-19T14:36:39.128Z,100486.97
2022-12-19T14:42:04.336Z,100494.81
2022-12-19T14:52:25.144Z,100494.06
2022-12-19T14:54:37.231Z,100491.78
2022-12-19T14:58:55.865Z,100491.34
2022-12-19T15:03:32.139Z,100491.00
2022-12-19T15:09:17.743Z,100484.56
2022-12-19T15:14:53.929Z,100484.09
2022-12-19T15:19:20.344Z,100484.09
2022-12-19T15:24:22.104Z,100492.88
2022-12-19T15:29:23.909Z,100496.06
2022-12-19T15:34:41.940Z,100502.41
2022-12-19T15:39:50.333Z,100492.31
2022-12-19T15:44:54.047Z,100475.75
2022-12-19T15:49:55.744Z,100480.19
2022-12-19T15:54:57.505Z,100476.06
2022-12-19T16:00:02.725Z,100465.84
2022-12-19T16:05:06.737Z,100469.06
2022-12-19T16:10:11.952Z,100453.88
2022-12-19T16:15:19.931Z,100443.22
2022-12-19T16:20:25.334Z,100448.28
2022-12-19T16:25:34.141Z,100452.22
2022-12-19T16:30:35.854Z,100451.88
2022-12-19T16:40:59.263Z,100450.16
2022-12-19T16:46:01.997Z,100447.78
2022-12-19T16:51:04.030Z,100463.84
2022-12-19T16:56:05.861Z,100464.47
2022-12-19T17:01:10.596Z,100456.81
2022-12-19T17:06:17.878Z,100463.84
2022-12-19T17:11:24.940Z,100458.66
2022-12-19T17:16:26.726Z,100447.97
2022-12-19T17:21:28.494Z,100451.28
2022-12-19T17:26:30.340Z,100441.91
2022-12-19T17:31:38.079Z,100447.25
2022-12-19T17:36:39.992Z,100440.13
2022-12-19T17:41:41.686Z,100448.31
2022-12-19T17:46:44.372Z,100446.84
2022-12-19T17:51:50.466Z,100442.88
2022-12-19T17:56:52.605Z,100458.66
2022-12-19T18:01:54.524Z,100453.25
2022-12-19T18:06:56.380Z,100436.50
2022-12-19T18:11:58.206Z,100441.47
2022-12-19T18:17:00.373Z,100438.19
2022-12-19T18:22:02.276Z,100439.19
2022-12-19T18:27:03.987Z,100437.69
2022-12-19T18:32:05.761Z,100427.69
2022-12-19T18:37:13.374Z,100436.28
2022-12-19T18:42:22.021Z,100437.19
2022-12-19T18:47:25.507Z,100441.91
2022-12-19T18:52:27.219Z,100440.94
2022-12-19T18:57:28.908Z,100431.00
2022-12-19T19:02:30.924Z,100416.81
2022-12-19T19:07:32.843Z,100412.25
2022-12-19T19:12:34.522Z,100401.06
2022-12-19T19:17:36.474Z,100401.72
2022-12-19T19:22:38.263Z,100389.06
2022-12-19T19:27:40.702Z,100404.66
2022-12-19T19:32:50.570Z,100408.28
2022-12-19T19:37:54.777Z,100413.09
2022-12-19T19:42:56.491Z,100407.47
2022-12-19T19:48:03.072Z,100415.09
2022-12-19T19:53:04.835Z,100404.91
2022-12-19T19:58:06.937Z,100381.94
2022-12-19T20:03:10.030Z,100389.25
2022-12-19T20:08:13.927Z,100383.22
2022-12-19T20:13:15.603Z,100386.25
2022-12-19T20:18:18.081Z,100369.69
2022-12-19T20:23:19.781Z,100364.16
2022-12-19T20:28:21.455Z,100354.03
2022-12-19T20:33:23.605Z,100352.72
2022-12-19T20:38:25.428Z,100357.94
2022-12-19T20:43:27.245Z,100361.19
2022-12-19T20:48:28.941Z,100357.66
2022-12-19T20:53:31.854Z,100353.22
2022-12-19T20:58:36.383Z,100340.41
2022-12-19T21:03:39.524Z,100342.13
2022-12-19T21:08:42.101Z,100328.84
2022-12-19T21:13:44.173Z,100320.19
2022-12-19T21:18:47.516Z,100338.72
2022-12-19T21:23:50.185Z,100340.44
2022-12-19T21:28:53.216Z,100349.56
2022-12-19T21:34:00.337Z,100324.50
2022-12-19T21:39:02.580Z,100325.78
2022-12-19T21:44:04.587Z,100339.47
2022-12-19T21:49:06.647Z,100324.00
2022-12-19T21:54:09.628Z,100323.44
2022-12-19T21:59:14.474Z,100338.78
2022-12-19T22:04:22.100Z,100347.44
2022-12-19T22:09:23.934Z,100331.16
2022-12-19T22:14:26.024Z,100331.88
2022-12-19T22:19:27.711Z,100318.81
2022-12-19T22:24:29.604Z,100338.75
2022-12-19T22:29:36.431Z,100368.00
2022-12-19T22:34:38.351Z,100358.41
2022-12-19T22:39:40.047Z,100357.69
2022-12-19T22:44:41.709Z,100357.56
2022-12-19T22:49:43.383Z,100358.47
2022-12-19T22:54:45.087Z,100382.94
2022-12-19T22:59:46.754Z,100387.47
2022-12-19T23:04:48.445Z,100394.94
2022-12-19T23:09:50.166Z,100395.41
2022-12-19T23:14:51.860Z,100384.31
2022-12-19T23:19:53.563Z,100368.56
2022-12-19T23:24:55.265Z,100359.09
2022-12-19T23:29:56.978Z,100375.41
2022-12-19T23:34:58.667Z,100379.31
2022-12-19T23:40:00.408Z,100374.25
2022-12-19T23:45:02.150Z,100366.53
2022-12-19T23:50:04.453Z,100370.75
2022-12-19T23:55:06.788Z,100357.13
